createdAt,value
2022-10-26T00:00:27.417Z,1.83
2022-10-26T00:02:29.167Z,1.30
2022-10-26T00:04:30.866Z,1.97
2022-10-26T00:06:32.513Z,1.33
2022-10-26T00:08:34.677Z,1.40
2022-10-26T00:10:38.012Z,1.27
2022-10-26T00:12:40.191Z,1.40
2022-10-26T00:14:41.939Z,1.97
2022-10-26T00:16:43.704Z,2.00
2022-10-26T00:18:45.659Z,1.60
2022-10-26T00:20:47.277Z,1.40
2022-10-26T00:22:48.909Z,2.03
2022-10-26T00:24:50.533Z,1.60
2022-10-26T00:26:52.151Z,1.60
2022-10-26T00:28:54.989Z,1.40
2022-10-26T00:31:04.508Z,1.60
2022-10-26T00:33:06.138Z,1.40
2022-10-26T00:35:21.211Z,1.63
2022-10-26T00:37:29.850Z,1.50
2022-10-26T00:39:31.534Z,1.67
2022-10-26T00:41:34.852Z,1.37
2022-10-26T00:43:39.857Z,1.03
2022-10-26T00:45:42.874Z,1.70
2022-10-26T00:48:11.534Z,1.50
2022-10-26T00:50:26.077Z,1.43
2022-10-26T00:52:29.396Z,1.47
2022-10-26T00:54:31.201Z,1.80
2022-10-26T00:56:34.349Z,1.57
2022-10-26T00:58:36.431Z,1.43
2022-10-26T01:00:41.572Z,1.60
2022-10-26T01:02:45.173Z,1.30
2022-10-26T01:04:47.892Z,1.50
2022-10-26T01:06:50.226Z,1.50
2022-10-26T01:08:51.980Z,1.93
2022-10-26T01:10:54.960Z,1.87
2022-10-26T01:12:58.226Z,1.20
2022-10-26T01:15:00.265Z,1.33
2022-10-26T01:17:16.591Z,1.33
2022-10-26T01:19:23.997Z,1.30
2022-10-26T01:21:53.374Z,1.30
2022-10-26T01:24:07.833Z,1.60
2022-10-26T01:26:12.255Z,1.70
2022-10-26T01:28:50.146Z,1.70
2022-10-26T01:30:53.164Z,1.27
2022-10-26T01:32:57.522Z,1.53
2022-10-26T01:35:17.705Z,1.63
2022-10-26T01:37:25.233Z,1.70
2022-10-26T01:39:38.262Z,1.57
2022-10-26T01:41:49.711Z,1.20
2022-10-26T01:44:02.557Z,1.67
2022-10-26T01:46:07.049Z,1.40
2022-10-26T01:48:12.117Z,2.20
2022-10-26T01:50:14.565Z,1.10
2022-10-26T01:52:18.514Z,2.17
2022-10-26T01:54:20.182Z,1.30
2022-10-26T01:56:25.756Z,1.60
2022-10-26T01:58:54.536Z,1.60
2022-10-26T02:01:14.582Z,1.90
2022-10-26T02:03:28.392Z,1.57
2022-10-26T02:05:33.044Z,1.50
2022-10-26T02:08:00.163Z,1.67
2022-10-26T02:10:10.208Z,1.60
2022-10-26T02:12:41.568Z,2.40
2022-10-26T02:14:58.095Z,1.53
2022-10-26T02:17:08.816Z,1.77
2022-10-26T02:19:24.825Z,1.80
2022-10-26T02:21:34.623Z,1.93
2022-10-26T02:23:39.750Z,1.87
2022-10-26T02:25:49.743Z,2.40
2022-10-26T02:27:55.688Z,1.83
2022-10-26T02:29:59.405Z,2.17
2022-10-26T02:32:03.358Z,1.77
2022-10-26T02:34:09.287Z,1.80
2022-10-26T02:36:14.595Z,1.83
2022-10-26T02:38:19.040Z,1.80
2022-10-26T02:40:25.420Z,2.50
2022-10-26T02:42:27.793Z,1.80
2022-10-26T02:44:32.577Z,2.07
2022-10-26T02:46:34.500Z,1.90
2022-10-26T02:48:36.720Z,1.70
2022-10-26T02:50:59.867Z,1.80
2022-10-26T02:53:16.981Z,2.03
2022-10-26T02:55:30.188Z,2.27
2022-10-26T02:57:39.799Z,1.80
2022-10-26T02:59:44.535Z,2.00
2022-10-26T03:01:46.631Z,2.10
2022-10-26T03:03:48.873Z,2.00
2022-10-26T03:05:50.562Z,2.17
2022-10-26T03:07:52.404Z,2.20
2022-10-26T03:09:54.023Z,1.90
2022-10-26T03:11:55.795Z,2.00
2022-10-26T03:13:57.457Z,2.23
2022-10-26T03:15:59.086Z,1.70
2022-10-26T03:18:00.838Z,2.13
2022-10-26T03:20:02.533Z,2.03
2022-10-26T03:22:04.195Z,2.23
2022-10-26T03:24:06.317Z,1.70
2022-10-26T03:26:07.969Z,1.73
2022-10-26T03:28:09.657Z,2.23
2022-10-26T03:30:11.702Z,1.60
2022-10-26T03:32:13.346Z,1.70
2022-10-26T03:34:15.062Z,1.63
2022-10-26T03:36:16.678Z,1.87
2022-10-26T03:38:18.344Z,1.73
2022-10-26T03:40:19.981Z,2.00
2022-10-26T03:42:21.640Z,1.70
2022-10-26T03:44:23.533Z,1.60
2022-10-26T03:46:25.150Z,2.07
2022-10-26T03:48:26.780Z,1.70
2022-10-26T03:50:28.458Z,1.63
2022-10-26T03:52:30.093Z,2.33
2022-10-26T03:54:31.717Z,2.27
2022-10-26T03:56:33.343Z,2.30
2022-10-26T03:58:35.046Z,1.50
2022-10-26T04:00:36.661Z,2.40
2022-10-26T04:02:38.538Z,2.10
2022-10-26T04:04:40.200Z,2.00
2022-10-26T04:06:42.142Z,1.90
2022-10-26T04:08:44.032Z,2.27
2022-10-26T04:10:47.350Z,1.80
2022-10-26T04:12:49.318Z,2.00
2022-10-26T04:14:51.691Z,1.80
2022-10-26T04:16:53.344Z,2.03
2022-10-26T04:18:55.039Z,1.93
2022-10-26T04:20:56.702Z,2.00
2022-10-26T04:23:04.086Z,2.00
2022-10-26T04:25:07.361Z,2.10
2022-10-26T04:27:09.005Z,2.00
2022-10-26T04:29:11.125Z,2.10
2022-10-26T04:31:12.852Z,2.10
2022-10-26T04:33:14.485Z,1.70
2022-10-26T04:35:16.545Z,2.10
2022-10-26T04:37:18.157Z,1.87
2022-10-26T04:39:19.910Z,1.77
2022-10-26T04:41:21.547Z,1.83
2022-10-26T04:43:23.165Z,1.73
2022-10-26T04:45:25.066Z,1.80
2022-10-26T04:47:26.707Z,2.20
2022-10-26T04:49:28.309Z,1.87
2022-10-26T04:51:29.927Z,2.00
2022-10-26T04:53:31.538Z,2.43
2022-10-26T04:55:33.986Z,2.60
2022-10-26T04:57:36.287Z,2.50
2022-10-26T04:59:38.033Z,2.23
2022-10-26T05:01:39.787Z,2.57
2022-10-26T05:03:41.513Z,2.07
2022-10-26T05:05:43.165Z,1.97
2022-10-26T05:07:44.833Z,2.53
2022-10-26T05:09:47.074Z,2.10
2022-10-26T05:11:48.681Z,2.37
2022-10-26T05:13:50.297Z,2.20
2022-10-26T05:15:54.749Z,2.47
2022-10-26T05:18:04.214Z,2.20
2022-10-26T05:20:10.202Z,2.03
2022-10-26T05:22:11.824Z,2.00
2022-10-26T05:24:13.402Z,2.83
2022-10-26T05:26:15.061Z,2.40
2022-10-26T05:28:18.811Z,2.53
2022-10-26T05:30:20.549Z,2.53
2022-10-26T05:32:22.237Z,2.50
2022-10-26T05:34:23.889Z,2.33
2022-10-26T05:36:25.650Z,2.60
2022-10-26T05:40:33.980Z,2.47
2022-10-26T05:42:35.705Z,2.60
2022-10-26T05:44:37.581Z,2.60
2022-10-26T05:46:39.248Z,2.73
2022-10-26T05:48:40.973Z,2.50
2022-10-26T05:50:42.705Z,2.53
2022-10-26T05:52:46.388Z,3.00
2022-10-26T05:54:48.178Z,2.40
2022-10-26T05:56:49.987Z,2.70
2022-10-26T05:58:51.859Z,2.23
2022-10-26T06:01:09.220Z,2.97
2022-10-26T06:03:49.277Z,2.20
2022-10-26T06:05:56.185Z,2.60
2022-10-26T06:07:58.078Z,2.37
2022-10-26T06:09:59.950Z,2.00
2022-10-26T06:12:01.955Z,2.30
2022-10-26T06:14:03.967Z,2.20
2022-10-26T06:16:11.651Z,2.30
2022-10-26T06:18:39.605Z,2.20
2022-10-26T06:20:55.254Z,2.20
2022-10-26T06:23:02.841Z,2.37
2022-10-26T06:25:38.376Z,2.10
2022-10-26T06:27:53.239Z,2.20
2022-10-26T06:30:01.696Z,2.03
2022-10-26T06:32:03.657Z,1.77
2022-10-26T06:34:05.621Z,1.97
2022-10-26T06:36:21.278Z,2.90
2022-10-26T06:38:26.654Z,2.77
2022-10-26T06:40:32.254Z,2.30
2022-10-26T06:42:34.100Z,2.67
2022-10-26T06:44:36.098Z,2.07
2022-10-26T06:46:48.231Z,2.47
2022-10-26T06:48:52.859Z,2.23
2022-10-26T06:50:55.454Z,2.20
2022-10-26T06:53:15.747Z,2.60
2022-10-26T06:55:17.769Z,3.17
2022-10-26T06:57:21.523Z,2.50
2022-10-26T06:59:52.227Z,2.50
2022-10-26T07:01:53.921Z,2.30
2022-10-26T07:03:55.824Z,2.40
2022-10-26T07:05:57.540Z,2.73
2022-10-26T07:07:59.525Z,2.73
2022-10-26T07:10:02.097Z,2.47
2022-10-26T07:12:03.961Z,2.23
2022-10-26T07:14:05.646Z,2.13
2022-10-26T07:16:07.530Z,2.30
2022-10-26T07:18:09.758Z,2.27
2022-10-26T07:20:12.520Z,2.60
2022-10-26T07:22:14.209Z,2.43
2022-10-26T07:24:15.827Z,2.40
2022-10-26T07:26:17.482Z,2.20
2022-10-26T07:28:19.127Z,2.40
2022-10-26T07:30:20.730Z,2.50
2022-10-26T07:32:22.405Z,2.80
2022-10-26T07:34:24.037Z,2.47
2022-10-26T07:36:25.690Z,2.73
2022-10-26T07:38:27.357Z,2.70
2022-10-26T07:40:30.401Z,2.70
2022-10-26T07:42:32.098Z,2.57
2022-10-26T07:44:33.749Z,2.43
2022-10-26T07:46:35.366Z,2.63
2022-10-26T07:48:37.056Z,2.50
2022-10-26T07:50:38.700Z,2.37
2022-10-26T07:52:41.670Z,2.30
2022-10-26T07:54:43.285Z,2.80
2022-10-26T07:56:44.902Z,2.47
2022-10-26T07:58:46.527Z,2.87
2022-10-26T08:00:48.168Z,2.73
2022-10-26T08:02:49.878Z,2.47
2022-10-26T08:04:51.499Z,2.40
2022-10-26T08:06:53.344Z,2.80
2022-10-26T08:08:54.970Z,2.80
2022-10-26T08:10:56.634Z,2.80
2022-10-26T08:12:58.276Z,2.63
2022-10-26T08:14:59.900Z,2.47
2022-10-26T08:17:01.662Z,2.60
2022-10-26T08:19:03.285Z,2.57
2022-10-26T08:21:13.671Z,2.97
2022-10-26T08:23:17.279Z,2.13
2022-10-26T08:25:21.458Z,2.77
2022-10-26T08:27:23.402Z,2.77
2022-10-26T08:29:25.065Z,2.63
2022-10-26T08:31:26.946Z,2.30
2022-10-26T08:33:28.623Z,2.73
2022-10-26T08:35:30.707Z,2.63
2022-10-26T08:37:32.358Z,2.70
2022-10-26T08:39:34.124Z,2.70
2022-10-26T08:41:42.201Z,2.70
2022-10-26T08:43:56.761Z,2.40
2022-10-26T08:46:11.437Z,2.57
2022-10-26T08:48:17.707Z,2.50
2022-10-26T08:50:33.915Z,2.63
2022-10-26T08:52:49.108Z,2.50
2022-10-26T08:54:57.296Z,2.77
2022-10-26T08:57:01.895Z,2.13
2022-10-26T08:59:18.239Z,2.90
2022-10-26T09:01:20.336Z,2.37
2022-10-26T09:03:22.171Z,2.57
2022-10-26T09:05:52.352Z,2.90
2022-10-26T09:08:06.389Z,2.63
2022-10-26T09:10:32.863Z,2.47
2022-10-26T09:12:49.439Z,2.57
2022-10-26T09:15:12.213Z,2.63
2022-10-26T09:17:27.530Z,2.30
2022-10-26T09:19:59.768Z,2.80
2022-10-26T09:22:26.650Z,2.33
2022-10-26T09:24:32.513Z,3.23
2022-10-26T09:26:56.840Z,2.30
2022-10-26T09:29:03.417Z,2.60
2022-10-26T09:31:05.566Z,2.50
2022-10-26T09:33:16.921Z,2.67
2022-10-26T09:35:25.213Z,3.13
2022-10-26T09:37:31.575Z,2.37
2022-10-26T09:39:42.180Z,2.67
2022-10-26T09:42:24.405Z,2.67
2022-10-26T09:44:31.477Z,3.10
2022-10-26T09:46:45.275Z,2.60
2022-10-26T09:48:56.970Z,2.90
2022-10-26T09:51:03.493Z,2.13
2022-10-26T09:53:06.858Z,2.90
2022-10-26T09:55:12.294Z,2.70
2022-10-26T09:57:20.143Z,2.20
2022-10-26T09:59:24.332Z,2.10
2022-10-26T10:01:38.200Z,2.40
2022-10-26T10:03:43.047Z,2.83
2022-10-26T10:05:52.981Z,3.20
2022-10-26T10:08:14.866Z,2.13
2022-10-26T10:10:19.168Z,3.27
2022-10-26T10:12:21.210Z,2.40
2022-10-26T10:14:28.596Z,2.90
2022-10-26T10:16:30.250Z,3.43
2022-10-26T10:18:32.481Z,2.47
2022-10-26T10:20:34.363Z,2.53
2022-10-26T10:22:36.161Z,2.53
2022-10-26T10:24:41.250Z,2.87
2022-10-26T10:27:04.733Z,2.80
2022-10-26T10:29:16.290Z,3.10
2022-10-26T10:31:26.589Z,3.00
2022-10-26T10:33:41.205Z,3.03
2022-10-26T10:35:52.421Z,3.20
2022-10-26T10:37:54.079Z,2.60
2022-10-26T10:40:01.552Z,2.77
2022-10-26T10:42:06.703Z,2.70
2022-10-26T10:44:30.014Z,2.83
2022-10-26T10:46:31.903Z,2.80
2022-10-26T10:48:35.859Z,2.53
2022-10-26T10:51:12.630Z,2.67
2022-10-26T10:53:23.522Z,3.00
2022-10-26T10:55:25.369Z,3.70
2022-10-26T10:57:42.103Z,2.80
2022-10-26T11:00:05.330Z,2.77
2022-10-26T11:02:13.232Z,3.00
2022-10-26T11:04:30.451Z,3.13
2022-10-26T11:06:36.674Z,2.67
2022-10-26T11:08:46.871Z,2.60
2022-10-26T11:11:03.087Z,2.83
2022-10-26T11:13:18.623Z,2.87
2022-10-26T11:15:24.745Z,2.77
2022-10-26T11:17:33.132Z,2.60
2022-10-26T11:19:42.373Z,2.60
2022-10-26T11:21:48.328Z,3.00
2022-10-26T11:24:01.325Z,2.93
2022-10-26T11:26:29.211Z,2.83
2022-10-26T11:28:55.718Z,2.67
2022-10-26T11:31:04.188Z,2.90
2022-10-26T11:33:22.093Z,2.80
2022-10-26T11:35:31.180Z,2.87
2022-10-26T11:37:38.836Z,2.80
2022-10-26T11:39:48.919Z,3.40
2022-10-26T11:41:55.377Z,2.70
2022-10-26T11:44:15.678Z,2.87
2022-10-26T11:46:26.901Z,2.40
2022-10-26T11:48:55.658Z,3.23
2022-10-26T11:50:59.318Z,2.80
2022-10-26T11:53:06.005Z,2.93
2022-10-26T11:55:10.744Z,2.73
2022-10-26T11:57:14.436Z,3.00
2022-10-26T11:59:33.084Z,2.90
2022-10-26T12:01:35.654Z,3.17
2022-10-26T12:03:45.416Z,2.73
2022-10-26T12:05:54.443Z,2.67
2022-10-26T12:08:00.579Z,2.87
2022-10-26T12:10:06.334Z,2.60
2022-10-26T12:12:20.652Z,2.27
2022-10-26T12:14:29.967Z,2.37
2022-10-26T12:16:52.868Z,2.13
2022-10-26T12:19:02.575Z,2.50
2022-10-26T12:21:08.887Z,3.20
2022-10-26T12:23:19.008Z,2.67
2022-10-26T12:25:30.062Z,2.63
2022-10-26T12:27:39.741Z,2.83
2022-10-26T12:29:49.451Z,2.70
2022-10-26T12:31:51.110Z,2.47
2022-10-26T12:33:52.766Z,1.80
2022-10-26T12:35:54.794Z,3.03
2022-10-26T12:37:56.712Z,2.17
2022-10-26T12:40:32.796Z,3.40
2022-10-26T12:42:41.434Z,2.67
2022-10-26T12:44:43.421Z,2.30
2022-10-26T12:46:45.417Z,2.13
2022-10-26T12:48:52.127Z,2.17
2022-10-26T12:50:53.891Z,2.50
2022-10-26T12:53:17.435Z,2.77
2022-10-26T12:55:46.572Z,2.70
2022-10-26T12:58:07.133Z,2.73
2022-10-26T13:00:15.943Z,3.10
2022-10-26T13:02:29.427Z,2.30
2022-10-26T13:05:04.981Z,2.60
2022-10-26T13:07:27.054Z,2.70
2022-10-26T13:09:32.956Z,2.20
2022-10-26T13:11:42.717Z,3.03
2022-10-26T13:13:45.307Z,2.87
2022-10-26T13:15:55.838Z,2.30
2022-10-26T13:18:18.750Z,3.40
2022-10-26T13:20:20.933Z,2.53
2022-10-26T13:22:24.401Z,2.83
2022-10-26T13:24:30.538Z,3.13
2022-10-26T13:26:42.622Z,2.37
2022-10-26T13:28:53.089Z,2.70
2022-10-26T13:30:54.708Z,2.57
2022-10-26T13:32:57.106Z,2.80
2022-10-26T13:35:01.623Z,2.73
2022-10-26T13:37:21.485Z,2.33
2022-10-26T13:39:55.874Z,2.40
2022-10-26T13:41:59.718Z,2.33
2022-10-26T13:44:06.239Z,2.80
2022-10-26T13:46:26.791Z,2.60
2022-10-26T13:48:40.152Z,2.80
2022-10-26T13:50:50.812Z,2.23
2022-10-26T13:52:56.977Z,3.20
2022-10-26T13:55:04.879Z,2.22
2022-10-26T13:57:27.997Z,2.38
2022-10-26T13:59:31.894Z,3.53
2022-10-26T14:01:33.569Z,2.25
2022-10-26T14:03:35.345Z,2.17
2022-10-26T14:05:42.225Z,2.17
2022-10-26T14:07:56.965Z,2.38
2022-10-26T14:09:59.263Z,2.13
2022-10-26T14:12:01.930Z,2.15
2022-10-26T14:14:05.021Z,2.30
2022-10-26T14:16:13.056Z,2.53
2022-10-26T14:18:43.609Z,2.63
2022-10-26T14:20:55.270Z,2.38
2022-10-26T14:22:57.085Z,2.38
2022-10-26T14:25:00.752Z,2.95
2022-10-26T14:27:02.547Z,2.50
2022-10-26T14:29:04.458Z,2.30
2022-10-26T14:31:28.876Z,2.50
2022-10-26T14:33:30.689Z,3.00
2022-10-26T14:35:37.154Z,1.95
2022-10-26T14:37:46.566Z,2.65
2022-10-26T14:39:48.437Z,2.93
2022-10-26T14:41:53.039Z,3.20
2022-10-26T14:43:57.577Z,2.33
2022-10-26T14:45:59.555Z,2.33
2022-10-26T14:48:03.221Z,3.10
2022-10-26T14:50:05.578Z,2.50
2022-10-26T14:52:07.526Z,3.20
2022-10-26T14:54:20.891Z,2.50
2022-10-26T14:56:36.957Z,2.50
2022-10-26T14:58:39.319Z,3.27
2022-10-26T15:00:42.449Z,2.73
2022-10-26T15:02:46.220Z,2.60
2022-10-26T15:05:03.974Z,2.67
2022-10-26T15:07:11.845Z,3.00
2022-10-26T15:09:32.175Z,2.97
2022-10-26T15:11:35.073Z,3.30
2022-10-26T15:13:42.122Z,3.23
2022-10-26T15:15:47.003Z,2.60
2022-10-26T15:17:56.577Z,2.80
2022-10-26T15:20:06.664Z,3.07
2022-10-26T15:22:26.169Z,2.50
2022-10-26T15:24:38.918Z,3.20
2022-10-26T15:26:43.938Z,2.90
2022-10-26T15:28:49.457Z,2.80
2022-10-26T15:31:29.366Z,2.73
2022-10-26T15:33:31.678Z,2.57
2022-10-26T15:35:33.485Z,2.90
2022-10-26T15:37:35.319Z,2.27
2022-10-26T15:39:36.990Z,2.60
2022-10-26T15:41:46.656Z,2.97
2022-10-26T15:43:49.598Z,2.90
2022-10-26T15:45:56.147Z,2.70
2022-10-26T15:47:59.850Z,3.10
2022-10-26T15:50:01.742Z,4.17
2022-10-26T15:52:08.709Z,3.63
2022-10-26T15:54:10.502Z,3.13
2022-10-26T15:56:17.686Z,3.10
2022-10-26T15:58:19.568Z,3.27
2022-10-26T16:00:21.475Z,3.13
2022-10-26T16:02:23.121Z,3.20
2022-10-26T16:04:24.883Z,3.37
2022-10-26T16:06:29.811Z,3.30
2022-10-26T16:08:31.657Z,3.90
2022-10-26T16:10:33.890Z,3.40
2022-10-26T16:12:35.598Z,3.00
2022-10-26T16:14:53.266Z,2.80
2022-10-26T16:16:59.348Z,3.10
2022-10-26T16:19:25.418Z,3.30
2022-10-26T16:21:24.039Z,2.70
2022-10-26T16:23:25.676Z,3.03
2022-10-26T16:25:27.491Z,3.50
2022-10-26T16:27:29.109Z,4.57
2022-10-26T16:29:31.102Z,4.43
2022-10-26T16:31:32.750Z,3.73
2022-10-26T16:33:37.615Z,3.70
2022-10-26T16:35:39.472Z,5.30
2022-10-26T16:37:41.437Z,6.00
2022-10-26T16:39:43.049Z,5.70
2022-10-26T16:41:44.700Z,3.20
2022-10-26T16:43:47.169Z,3.17
2022-10-26T16:45:49.031Z,3.60
2022-10-26T16:47:50.918Z,3.13
2022-10-26T16:49:52.706Z,3.03
2022-10-26T16:51:54.358Z,3.50
2022-10-26T16:53:57.386Z,3.27
2022-10-26T16:56:07.854Z,3.30
2022-10-26T16:58:09.597Z,2.93
2022-10-26T17:00:11.520Z,3.00
2022-10-26T17:02:15.141Z,4.63
2022-10-26T17:04:16.934Z,4.00
2022-10-26T17:06:18.834Z,4.33
2022-10-26T17:08:20.482Z,5.00
2022-10-26T17:10:22.432Z,4.27
2022-10-26T17:12:24.061Z,4.50
2022-10-26T17:14:25.699Z,4.50
2022-10-26T17:16:27.413Z,3.00
2022-10-26T17:18:29.794Z,4.10
2022-10-26T17:20:31.455Z,3.77
2022-10-26T17:22:33.195Z,3.20
2022-10-26T17:24:34.900Z,4.50
2022-10-26T17:26:36.845Z,4.57
2022-10-26T17:28:38.784Z,5.17
2022-10-26T17:30:40.734Z,5.43
2022-10-26T17:32:42.351Z,5.50
2022-10-26T17:34:44.086Z,5.50
2022-10-26T17:36:45.871Z,6.10
2022-10-26T17:38:52.497Z,6.63
2022-10-26T17:40:54.323Z,5.97
2022-10-26T17:42:55.958Z,5.83
2022-10-26T17:44:57.572Z,5.53
2022-10-26T17:46:59.226Z,6.20
2022-10-26T17:49:01.262Z,5.40
2022-10-26T17:51:05.894Z,4.50
2022-10-26T17:53:07.694Z,5.50
2022-10-26T17:55:09.510Z,5.70
2022-10-26T17:57:11.146Z,4.77
2022-10-26T17:59:13.336Z,4.27
2022-10-26T18:01:15.017Z,4.57
2022-10-26T18:03:16.738Z,5.57
2022-10-26T18:05:18.370Z,7.23
2022-10-26T18:07:20.054Z,8.00
2022-10-26T18:09:21.672Z,6.50
2022-10-26T18:11:27.305Z,5.77
2022-10-26T18:13:32.029Z,4.97
2022-10-26T18:15:35.646Z,6.60
2022-10-26T18:17:37.376Z,10.43
2022-10-26T18:19:39.033Z,11.47
2022-10-26T18:21:40.654Z,10.30
2022-10-26T18:23:42.541Z,5.30
2022-10-26T18:25:44.174Z,7.10
2022-10-26T18:27:46.025Z,3.90
2022-10-26T18:29:47.669Z,5.13
2022-10-26T18:31:49.572Z,5.90
2022-10-26T18:34:05.238Z,5.17
2022-10-26T18:36:11.085Z,4.47
2022-10-26T18:38:12.748Z,5.43
2022-10-26T18:40:14.607Z,4.60
2022-10-26T18:42:16.197Z,3.77
2022-10-26T18:44:19.245Z,3.80
2022-10-26T18:46:27.837Z,4.50
2022-10-26T18:48:29.439Z,5.13
2022-10-26T18:50:31.071Z,4.30
2022-10-26T18:52:32.790Z,4.73
2022-10-26T18:54:34.629Z,4.40
2022-10-26T18:56:36.320Z,3.33
2022-10-26T18:58:40.798Z,3.10
2022-10-26T19:00:45.578Z,3.53
2022-10-26T19:02:51.530Z,3.30
2022-10-26T19:04:58.633Z,3.73
2022-10-26T19:07:01.474Z,3.80
2022-10-26T19:09:04.405Z,2.70
2022-10-26T19:11:08.101Z,2.90
2022-10-26T19:13:09.754Z,3.10
2022-10-26T19:15:11.360Z,3.30
2022-10-26T19:17:12.982Z,2.83
2022-10-26T19:19:16.522Z,3.23
2022-10-26T19:21:20.510Z,3.27
2022-10-26T19:23:22.099Z,3.40
2022-10-26T19:25:23.922Z,3.53
2022-10-26T19:27:25.589Z,4.33
2022-10-26T19:29:27.536Z,3.70
2022-10-26T19:31:32.341Z,5.30
2022-10-26T19:33:34.758Z,4.17
2022-10-26T19:37:43.257Z,3.90
2022-10-26T19:39:45.081Z,3.07
2022-10-26T19:41:46.848Z,3.70
2022-10-26T19:43:48.633Z,3.37
2022-10-26T19:45:50.375Z,5.23
2022-10-26T19:47:52.277Z,3.87
2022-10-26T19:49:54.132Z,3.70
2022-10-26T19:51:57.871Z,3.13
2022-10-26T19:54:03.456Z,3.10
2022-10-26T19:56:10.470Z,3.80
2022-10-26T19:58:12.928Z,5.23
2022-10-26T20:00:14.972Z,4.70
2022-10-26T20:02:16.638Z,6.57
2022-10-26T20:04:18.330Z,9.93
2022-10-26T20:06:20.290Z,5.53
2022-10-26T20:08:22.609Z,4.10
2022-10-26T20:10:24.976Z,6.03
2022-10-26T20:12:26.598Z,5.90
2022-10-26T20:14:28.237Z,3.17
2022-10-26T20:16:29.851Z,2.73
2022-10-26T20:18:31.480Z,3.40
2022-10-26T20:20:37.791Z,2.80
2022-10-26T20:22:39.417Z,3.40
2022-10-26T20:24:41.042Z,3.37
2022-10-26T20:26:42.675Z,3.37
2022-10-26T20:28:46.151Z,3.83
2022-10-26T20:30:48.702Z,3.40
2022-10-26T20:32:50.430Z,2.67
2022-10-26T20:34:52.065Z,3.00
2022-10-26T20:36:53.665Z,3.53
2022-10-26T20:38:55.758Z,3.67
2022-10-26T20:40:59.342Z,3.63
2022-10-26T20:43:01.399Z,3.07
2022-10-26T20:45:07.514Z,3.70
2022-10-26T20:47:09.781Z,3.90
2022-10-26T20:49:11.647Z,3.13
2022-10-26T20:51:19.720Z,2.90
2022-10-26T20:53:35.916Z,3.13
2022-10-26T20:55:45.806Z,3.30
2022-10-26T20:57:56.042Z,3.50
2022-10-26T21:00:04.849Z,3.90
2022-10-26T21:02:09.668Z,3.33
2022-10-26T21:04:11.565Z,3.30
2022-10-26T21:06:13.189Z,4.10
2022-10-26T21:08:15.016Z,2.93
2022-10-26T21:10:16.682Z,3.40
2022-10-26T21:12:18.505Z,3.80
2022-10-26T21:14:20.159Z,3.30
2022-10-26T21:18:28.495Z,3.27
2022-10-26T21:20:31.047Z,3.57
2022-10-26T21:22:32.672Z,3.73
2022-10-26T21:26:41.116Z,3.93
2022-10-26T21:28:47.294Z,6.07
2022-10-26T21:30:49.013Z,4.80
2022-10-26T21:32:54.436Z,4.03
2022-10-26T21:34:56.122Z,3.43
2022-10-26T21:36:57.832Z,3.37
2022-10-26T21:38:59.783Z,3.60
2022-10-26T21:41:03.707Z,3.27
2022-10-26T21:43:05.342Z,3.23
2022-10-26T21:45:07.808Z,2.97
2022-10-26T21:47:10.823Z,3.20
2022-10-26T21:49:12.499Z,3.13
2022-10-26T21:51:18.621Z,3.87
2022-10-26T21:53:20.742Z,3.40
2022-10-26T21:55:22.340Z,3.60
2022-10-26T21:57:24.393Z,3.00
2022-10-26T21:59:26.012Z,3.10
2022-10-26T22:01:27.890Z,3.93
2022-10-26T22:03:29.631Z,3.90
2022-10-26T22:05:31.329Z,3.73
2022-10-26T22:07:33.039Z,3.30
2022-10-26T22:09:40.688Z,10.93
2022-10-26T22:11:51.362Z,12.17
2022-10-26T22:13:53.694Z,5.37
2022-10-26T22:16:04.151Z,4.80
2022-10-26T22:18:05.937Z,3.00
2022-10-26T22:20:09.281Z,3.60
2022-10-26T22:22:10.913Z,3.23
2022-10-26T22:24:12.600Z,4.00
2022-10-26T22:26:16.881Z,3.13
2022-10-26T22:28:18.644Z,3.63
2022-10-26T22:30:20.650Z,3.00
2022-10-26T22:32:22.267Z,2.83
2022-10-26T22:34:23.858Z,4.27
2022-10-26T22:36:26.005Z,3.70
2022-10-26T22:38:27.595Z,3.67
2022-10-26T22:40:29.194Z,3.07
2022-10-26T22:42:30.850Z,3.30
2022-10-26T22:44:32.497Z,2.90
2022-10-26T22:46:34.176Z,3.90
2022-10-26T22:48:36.064Z,3.53
2022-10-26T22:50:38.960Z,3.47
2022-10-26T22:52:40.576Z,3.27
2022-10-26T22:54:42.230Z,3.20
2022-10-26T22:56:43.886Z,3.23
2022-10-26T22:58:45.645Z,3.60
2022-10-26T23:00:47.320Z,2.87
2022-10-26T23:02:49.145Z,3.83
2022-10-26T23:04:50.774Z,3.30
2022-10-26T23:06:52.434Z,3.40
2022-10-26T23:08:54.113Z,3.73
2022-10-26T23:11:00.439Z,2.97
2022-10-26T23:15:05.230Z,3.00
2022-10-26T23:17:07.102Z,3.37
2022-10-26T23:19:09.028Z,3.47
2022-10-26T23:21:12.213Z,3.70
2022-10-26T23:23:13.862Z,3.80
2022-10-26T23:25:15.530Z,4.23
2022-10-26T23:27:17.337Z,3.63
2022-10-26T23:29:19.076Z,4.10
2022-10-26T23:31:26.184Z,3.57
2022-10-26T23:33:28.163Z,4.50
2022-10-26T23:35:29.842Z,4.20
2022-10-26T23:37:31.522Z,3.60
2022-10-26T23:39:33.165Z,3.87
2022-10-26T23:41:34.878Z,4.37
2022-10-26T23:43:36.501Z,4.37
2022-10-26T23:45:38.238Z,5.30
2022-10-26T23:47:40.144Z,4.67
2022-10-26T23:49:41.729Z,3.83
2022-10-26T23:51:43.472Z,4.67
2022-10-26T23:53:45.078Z,4.07
2022-10-26T23:55:47.436Z,4.57
2022-10-26T23:57:49.468Z,6.17
2022-10-26T23:59:51.358Z,4.37
